Time;durP1;ratioP1;P1;durP2;ratioP2;P2;SDS_P1;SDS_P2;PMS_P1;PMS_P2;Temp;Humidity;BMP_temperature;BMP_pressure;BME280_temperature;BME280_humidity;BME280_pressure;Samples;Min_cycle;Max_cycle;Signal;HPM_P1;HPM_P2
2023/07/30 00:02:05;;;;;;;8.15;4.22;;;16.30;99.90;;;;;;5054917;28;20472;-66
2023/07/30 00:04:30;;;;;;;5.78;4.07;;;16.20;99.90;;;;;;5038052;28;20049;-68
2023/07/30 00:06:56;;;;;;;7.28;4.00;;;16.20;99.90;;;;;;5038137;28;20037;-66
2023/07/30 00:09:22;;;;;;;12.15;4.70;;;16.20;99.90;;;;;;5055043;28;20048;-70
2023/07/30 00:11:48;;;;;;;8.77;4.38;;;16.20;99.90;;;;;;5037497;28;20053;-66
2023/07/30 00:14:13;;;;;;;9.00;4.97;;;16.20;99.90;;;;;;5054976;28;20131;-66
2023/07/30 00:16:39;;;;;;;6.45;4.72;;;16.10;99.90;;;;;;5054536;28;20056;-68
2023/07/30 00:19:05;;;;;;;10.73;5.20;;;16.10;99.90;;;;;;5054812;28;20059;-66
2023/07/30 00:21:30;;;;;;;8.82;4.63;;;16.10;99.90;;;;;;5033089;28;20056;-68
2023/07/30 00:23:56;;;;;;;11.68;4.97;;;16.10;99.90;;;;;;5035120;28;20053;-67
2023/07/30 00:26:26;;;;;;;7.35;4.72;;;16.00;99.90;;;;;;5034826;28;20057;-66
2023/07/30 00:28:51;;;;;;;7.95;4.55;;;16.00;99.90;;;;;;5034680;28;20053;-67
2023/07/30 00:31:17;;;;;;;7.22;4.75;;;15.90;99.90;;;;;;5035371;28;20044;-67
2023/07/30 00:33:43;;;;;;;5.50;4.13;;;16.00;99.90;;;;;;5034686;28;20387;-67
2023/07/30 00:36:08;;;;;;;6.88;4.18;;;15.90;99.90;;;;;;5034730;28;20076;-66
2023/07/30 00:38:34;;;;;;;6.97;4.30;;;15.90;99.90;;;;;;5034566;28;20042;-65
2023/07/30 00:41:00;;;;;;;6.57;3.92;;;15.80;99.90;;;;;;5034471;28;20044;-66
2023/07/30 00:43:25;;;;;;;7.18;4.53;;;15.80;99.90;;;;;;5033306;28;20527;-66
2023/07/30 00:45:51;;;;;;;8.05;4.05;;;15.80;99.90;;;;;;5034433;28;20168;-67
2023/07/30 00:48:17;;;;;;;9.70;4.95;;;15.80;99.90;;;;;;5034810;28;20099;-67
2023/07/30 00:50:43;;;;;;;8.52;4.68;;;15.70;99.90;;;;;;5034445;28;20098;-67
2023/07/30 00:53:11;;;;;;;10.18;4.43;;;15.70;99.90;;;;;;5034430;28;20540;-66
2023/07/30 00:55:36;;;;;;;10.70;4.50;;;15.70;99.90;;;;;;5034230;28;20046;-68
2023/07/30 00:58:04;;;;;;;7.45;4.13;;;15.70;99.90;;;;;;5034518;28;20544;-68
2023/07/30 01:00:31;;;;;;;5.85;4.70;;;15.60;99.90;;;;;;5032990;28;20474;-66
2023/07/30 01:02:57;;;;;;;11.23;4.25;;;15.60;99.90;;;;;;5034603;28;20053;-67
2023/07/30 01:05:23;;;;;;;10.82;5.75;;;15.50;99.90;;;;;;5033803;28;20056;-67
2023/07/30 01:07:49;;;;;;;5.93;3.95;;;15.50;99.90;;;;;;5034435;28;20049;-67
2023/07/30 01:10:15;;;;;;;7.30;4.40;;;15.50;99.90;;;;;;5032477;28;20049;-65
2023/07/30 01:12:42;;;;;;;8.55;5.30;;;15.50;99.90;;;;;;5034044;28;20122;-66
2023/07/30 01:15:09;;;;;;;7.20;5.15;;;15.50;99.90;;;;;;5033942;28;20542;-67
2023/07/30 01:17:35;;;;;;;9.63;4.78;;;15.50;99.90;;;;;;5034477;28;20046;-65
2023/07/30 01:20:01;;;;;;;13.35;5.53;;;15.50;99.90;;;;;;5034449;28;20103;-65
2023/07/30 01:22:26;;;;;;;8.85;5.15;;;15.50;99.90;;;;;;5051925;28;20574;-65
2023/07/30 01:24:52;;;;;;;9.73;5.10;;;15.50;99.90;;;;;;5036594;28;20052;-65
2023/07/30 01:27:30;;;;;;;11.88;5.32;;;15.60;99.90;;;;;;5053900;28;20041;-67
2023/07/30 01:30:18;;;;;;;10.27;6.00;;;15.60;99.90;;;;;;5053498;28;20106;-67
2023/07/30 01:32:46;;;;;;;11.82;5.22;;;15.60;99.90;;;;;;5053435;28;20052;-66
2023/07/30 01:35:14;;;;;;;10.77;5.47;;;15.70;99.90;;;;;;5053748;28;20060;-65
2023/07/30 01:37:41;;;;;;;14.88;5.55;;;15.70;99.90;;;;;;5053738;28;20124;-66
2023/07/30 01:40:08;;;;;;;10.27;5.25;;;15.70;99.90;;;;;;5053253;28;20072;-66
2023/07/30 01:42:34;;;;;;;11.05;6.00;;;15.70;99.90;;;;;;5053141;28;20073;-66
2023/07/30 01:45:00;;;;;;;13.35;5.57;;;15.60;99.90;;;;;;5053076;28;20052;-68
2023/07/30 01:47:25;;;;;;;10.05;5.25;;;15.60;99.90;;;;;;5053048;28;20044;-67
2023/07/30 01:49:51;;;;;;;8.70;5.53;;;15.60;99.90;;;;;;5053407;28;20119;-66
2023/07/30 01:52:17;;;;;;;11.23;5.10;;;15.60;99.90;;;;;;5052947;28;20106;-67
2023/07/30 01:54:42;;;;;;;14.55;6.03;;;15.60;99.90;;;;;;5052725;28;20076;-67
2023/07/30 01:57:08;;;;;;;19.10;5.43;;;15.60;99.90;;;;;;5052872;28;20056;-66
2023/07/30 01:59:34;;;;;;;10.70;5.88;;;15.60;99.90;;;;;;5035534;28;20064;-66
2023/07/30 02:01:59;;;;;;;8.95;5.03;;;15.50;99.90;;;;;;5052770;28;20048;-65
2023/07/30 02:04:26;;;;;;;10.35;5.07;;;15.60;99.90;;;;;;5053033;28;20126;-66
2023/07/30 02:06:52;;;;;;;8.73;4.32;;;15.60;99.90;;;;;;5052396;28;20505;-66
2023/07/30 02:09:18;;;;;;;13.07;5.80;;;15.60;99.90;;;;;;5053360;28;20084;-66
2023/07/30 02:11:43;;;;;;;10.10;4.90;;;15.60;99.90;;;;;;5053041;28;20044;-68
2023/07/30 02:14:10;;;;;;;6.97;5.05;;;15.60;99.90;;;;;;5052741;28;20045;-66
2023/07/30 02:16:36;;;;;;;12.30;5.88;;;15.60;99.90;;;;;;5052612;28;20043;-68
2023/07/30 02:19:01;;;;;;;11.38;4.88;;;15.60;99.90;;;;;;5052726;28;20049;-67
2023/07/30 02:21:27;;;;;;;10.60;5.65;;;15.60;99.90;;;;;;5052385;28;20469;-67
2023/07/30 02:23:53;;;;;;;12.00;5.78;;;15.50;99.90;;;;;;5052026;28;20491;-65
2023/07/30 02:26:19;;;;;;;10.65;5.22;;;15.60;99.90;;;;;;5052664;28;20102;-66
2023/07/30 02:28:44;;;;;;;14.40;5.75;;;15.50;99.90;;;;;;5034908;28;20045;-65
2023/07/30 02:31:10;;;;;;;12.43;4.93;;;15.50;99.90;;;;;;5052437;28;20116;-67
2023/07/30 02:33:36;;;;;;;11.98;5.40;;;15.50;99.90;;;;;;5053063;28;20044;-65
2023/07/30 02:36:02;;;;;;;14.05;5.72;;;15.50;99.90;;;;;;5052497;28;20485;-67
2023/07/30 02:38:27;;;;;;;14.15;5.82;;;15.40;99.90;;;;;;5052318;28;20123;-68
2023/07/30 02:40:53;;;;;;;12.07;6.03;;;15.40;99.90;;;;;;5052254;28;20183;-67
2023/07/30 02:43:18;;;;;;;11.88;5.95;;;15.40;99.90;;;;;;5052313;28;20142;-68
2023/07/30 02:45:47;;;;;;;14.63;6.80;;;15.40;99.90;;;;;;5052330;28;20106;-65
2023/07/30 02:48:13;;;;;;;17.48;7.00;;;15.30;99.90;;;;;;5052712;28;20075;-66
2023/07/30 02:50:39;;;;;;;10.77;5.38;;;15.30;99.90;;;;;;5052490;28;20470;-66
2023/07/30 02:53:04;;;;;;;10.23;5.60;;;15.30;99.90;;;;;;5052501;28;20358;-66
2023/07/30 02:55:30;;;;;;;13.07;5.38;;;15.30;99.90;;;;;;5052129;28;20049;-66
2023/07/30 02:57:56;;;;;;;13.25;5.05;;;15.30;99.90;;;;;;5052101;28;20041;-66
2023/07/30 03:00:21;;;;;;;12.35;5.20;;;15.30;99.90;;;;;;5051925;28;20107;-67
2023/07/30 03:02:47;;;;;;;11.82;5.75;;;15.20;99.90;;;;;;5052137;28;20040;-66
2023/07/30 03:05:13;;;;;;;10.35;5.47;;;15.30;99.90;;;;;;5034718;28;20473;-67
2023/07/30 03:07:38;;;;;;;12.35;5.85;;;15.30;99.90;;;;;;5052101;28;20048;-66
2023/07/30 03:10:04;;;;;;;15.18;5.47;;;15.40;99.90;;;;;;5052570;28;20052;-67
2023/07/30 03:12:30;;;;;;;12.95;5.32;;;15.40;99.90;;;;;;5018307;28;20110;-67
2023/07/30 03:14:56;;;;;;;10.05;4.97;;;15.40;99.90;;;;;;5052032;28;20457;-66
2023/07/30 03:17:21;;;;;;;6.65;4.20;;;15.40;99.90;;;;;;5052357;28;20044;-66
2023/07/30 03:19:47;;;;;;;11.52;4.60;;;15.40;99.90;;;;;;5052483;28;20152;-66
2023/07/30 03:22:13;;;;;;;18.15;5.32;;;15.40;99.90;;;;;;5052715;28;20529;-67
2023/07/30 03:24:38;;;;;;;11.20;5.00;;;15.50;99.90;;;;;;5052031;28;20426;-66
2023/07/30 03:27:04;;;;;;;11.55;6.03;;;15.40;99.90;;;;;;5051904;28;20048;-66
2023/07/30 03:29:30;;;;;;;13.48;5.82;;;15.40;99.90;;;;;;5051528;28;20480;-66
2023/07/30 03:31:56;;;;;;;13.88;6.43;;;15.50;99.90;;;;;;5052511;28;20094;-66
2023/07/30 03:34:21;;;;;;;11.85;5.38;;;15.50;99.90;;;;;;5054738;28;20487;-67
2023/07/30 03:36:47;;;;;;;11.05;5.00;;;15.40;99.90;;;;;;5055947;28;20127;-65
2023/07/30 03:39:13;;;;;;;12.27;5.03;;;15.40;99.90;;;;;;5055626;28;20138;-65
2023/07/30 03:41:38;;;;;;;14.95;5.70;;;15.40;99.90;;;;;;5037798;28;20049;-66
2023/07/30 03:44:04;;;;;;;13.65;6.07;;;15.40;99.90;;;;;;5055554;28;20048;-65
2023/07/30 03:46:30;;;;;;;11.43;6.68;;;15.40;99.90;;;;;;5037581;28;20508;-66
2023/07/30 03:48:55;;;;;;;12.80;5.15;;;15.40;99.90;;;;;;5055561;28;20099;-66
2023/07/30 03:51:22;;;;;;;8.60;4.90;;;15.40;99.90;;;;;;5055445;28;20388;-65
2023/07/30 03:53:47;;;;;;;12.32;5.38;;;15.40;99.90;;;;;;5037523;28;20102;-67
2023/07/30 03:56:13;;;;;;;12.38;5.82;;;15.40;99.90;;;;;;5055625;28;20048;-65
2023/07/30 03:58:38;;;;;;;8.25;4.88;;;15.40;99.90;;;;;;5055108;28;20055;-66
2023/07/30 04:01:04;;;;;;;10.60;5.18;;;15.40;99.90;;;;;;5055012;28;20041;-65
2023/07/30 04:03:30;;;;;;;11.07;4.82;;;15.40;99.90;;;;;;5054934;28;20507;-66
2023/07/30 04:05:55;;;;;;;8.07;4.28;;;15.40;99.90;;;;;;5037878;28;20052;-66
2023/07/30 04:08:21;;;;;;;8.63;4.70;;;15.30;99.90;;;;;;5037238;28;20489;-66
2023/07/30 04:10:47;;;;;;;10.80;5.43;;;15.30;99.90;;;;;;5054860;28;20469;-65
2023/07/30 04:13:13;;;;;;;11.85;5.78;;;15.30;99.90;;;;;;5055007;28;20053;-68
2023/07/30 04:15:39;;;;;;;11.25;4.70;;;15.30;99.90;;;;;;5055125;28;20041;-66
2023/07/30 04:18:04;;;;;;;11.95;5.22;;;15.20;99.90;;;;;;5037188;28;20045;-66
2023/07/30 04:20:30;;;;;;;8.68;4.20;;;15.20;99.90;;;;;;5054390;28;20041;-66
2023/07/30 04:22:56;;;;;;;8.00;4.65;;;15.20;99.90;;;;;;5037475;28;20060;-66
2023/07/30 04:25:22;;;;;;;12.50;5.75;;;15.20;99.90;;;;;;5054969;28;20114;-67
2023/07/30 04:27:48;;;;;;;10.00;4.88;;;15.20;99.90;;;;;;5037755;28;20405;-66
2023/07/30 04:30:14;;;;;;;14.25;5.15;;;15.20;99.90;;;;;;5054611;28;20052;-66
2023/07/30 04:32:39;;;;;;;11.73;5.70;;;15.20;99.90;;;;;;5037464;28;20041;-66
2023/07/30 04:35:05;;;;;;;9.55;4.38;;;15.20;99.90;;;;;;5036954;28;20518;-66
2023/07/30 04:37:31;;;;;;;11.60;5.22;;;15.20;99.90;;;;;;5037125;28;20045;-66
2023/07/30 04:39:57;;;;;;;11.07;4.93;;;15.20;99.90;;;;;;5054728;28;20045;-66
2023/07/30 04:42:22;;;;;;;15.75;4.93;;;15.20;99.90;;;;;;5054635;28;20561;-67
2023/07/30 04:44:48;;;;;;;10.20;4.80;;;15.30;99.90;;;;;;5036200;28;20048;-67
2023/07/30 04:47:14;;;;;;;8.52;3.92;;;15.30;99.90;;;;;;5054386;28;20417;-66
2023/07/30 04:49:40;;;;;;;11.65;4.53;;;15.30;99.90;;;;;;5054645;28;20040;-67
2023/07/30 04:52:09;;;;;;;13.98;4.72;;;15.40;99.90;;;;;;5054190;28;20045;-66
2023/07/30 04:54:37;;;;;;;9.73;4.68;;;15.40;99.90;;;;;;5036689;28;20045;-67
2023/07/30 04:57:04;;;;;;;12.77;4.88;;;15.50;99.90;;;;;;5054212;28;20098;-67
2023/07/30 04:59:29;;;;;;;10.82;4.68;;;15.60;99.90;;;;;;5036863;28;20049;-66
2023/07/30 05:01:55;;;;;;;12.80;4.72;;;15.70;99.90;;;;;;5054530;28;20037;-66
2023/07/30 05:04:21;;;;;;;14.13;5.55;;;15.80;99.90;;;;;;5053897;28;20447;-66
2023/07/30 05:06:46;;;;;;;14.45;4.70;;;15.80;99.90;;;;;;5053966;28;20135;-66
2023/07/30 05:09:12;;;;;;;11.27;4.43;;;15.80;99.90;;;;;;5054808;28;20103;-66
2023/07/30 05:11:39;;;;;;;8.68;4.78;;;15.90;99.90;;;;;;5054131;28;20472;-66
2023/07/30 05:14:04;;;;;;;9.43;4.28;;;15.90;99.90;;;;;;5036476;28;20087;-66
2023/07/30 05:16:30;;;;;;;9.48;4.82;;;15.90;99.90;;;;;;5053776;28;20049;-66
2023/07/30 05:18:56;;;;;;;15.15;4.90;;;16.00;99.90;;;;;;5053627;28;20048;-66
2023/07/30 05:21:21;;;;;;;7.75;4.38;;;16.00;99.90;;;;;;5053371;28;20103;-67
2023/07/30 05:23:47;;;;;;;7.93;4.63;;;16.00;99.90;;;;;;5053989;28;20139;-66
2023/07/30 05:26:13;;;;;;;10.82;4.88;;;16.10;99.90;;;;;;5035998;28;20048;-66
2023/07/30 05:28:38;;;;;;;10.80;5.07;;;16.20;99.90;;;;;;5053455;28;20052;-66
2023/07/30 05:31:04;;;;;;;10.88;4.82;;;16.20;99.90;;;;;;5053121;28;20041;-66
2023/07/30 05:33:30;;;;;;;8.50;4.70;;;16.20;99.90;;;;;;5019121;28;20052;-67
2023/07/30 05:35:56;;;;;;;15.52;4.78;;;16.30;99.90;;;;;;5053136;28;20632;-66
2023/07/30 05:38:21;;;;;;;7.78;4.53;;;16.40;99.90;;;;;;5053436;28;20088;-66
2023/07/30 05:40:47;;;;;;;11.23;5.00;;;16.40;99.90;;;;;;5053355;28;20048;-65
2023/07/30 05:43:13;;;;;;;14.18;5.25;;;16.50;99.90;;;;;;5053396;28;20376;-66
2023/07/30 05:45:39;;;;;;;9.00;4.30;;;16.60;99.90;;;;;;5053039;28;20048;-66
2023/07/30 05:48:05;;;;;;;20.38;6.50;;;16.60;99.90;;;;;;5053017;28;20084;-67
2023/07/30 05:50:30;;;;;;;9.88;5.70;;;16.70;99.90;;;;;;5035509;28;20080;-67
2023/07/30 05:52:56;;;;;;;12.18;4.25;;;16.70;99.90;;;;;;5052908;28;20532;-66
2023/07/30 05:55:22;;;;;;;10.38;4.60;;;16.80;99.90;;;;;;5052815;28;20048;-67
2023/07/30 05:57:47;;;;;;;13.27;4.70;;;16.80;99.90;;;;;;5052158;28;20124;-66
2023/07/30 06:00:13;;;;;;;11.27;3.88;;;16.90;99.90;;;;;;5052637;28;20118;-66
2023/07/30 06:02:39;;;;;;;13.65;4.70;;;17.00;99.90;;;;;;5053111;28;20041;-66
2023/07/30 06:05:05;;;;;;;7.85;4.88;;;17.00;99.90;;;;;;5052539;28;20053;-66
2023/07/30 06:07:30;;;;;;;9.30;5.00;;;17.10;99.90;;;;;;5018805;28;20045;-67
2023/07/30 06:09:56;;;;;;;9.63;4.85;;;17.10;99.90;;;;;;5052480;28;20044;-66
2023/07/30 06:12:22;;;;;;;11.25;4.47;;;17.20;99.90;;;;;;5052245;28;20053;-67
2023/07/30 06:14:47;;;;;;;9.52;4.88;;;17.20;99.90;;;;;;5052616;28;20051;-66
2023/07/30 06:17:13;;;;;;;7.70;4.60;;;17.30;99.90;;;;;;5052354;28;20044;-66
2023/07/30 06:19:39;;;;;;;12.70;4.78;;;17.40;99.90;;;;;;5035291;28;20049;-66
2023/07/30 06:22:05;;;;;;;10.57;4.65;;;17.40;99.90;;;;;;5052329;28;20052;-66
2023/07/30 06:24:30;;;;;;;10.70;4.88;;;17.50;99.90;;;;;;5018388;28;20053;-66
2023/07/30 06:26:56;;;;;;;10.48;4.47;;;17.60;99.90;;;;;;5052332;28;20041;-66
2023/07/30 06:29:21;;;;;;;10.07;4.63;;;17.60;99.90;;;;;;5052315;28;20064;-66
2023/07/30 06:31:47;;;;;;;9.82;5.38;;;17.60;99.90;;;;;;5034438;28;20042;-65
2023/07/30 06:34:13;;;;;;;9.73;4.93;;;17.50;99.90;;;;;;5018374;28;20045;-66
2023/07/30 06:36:39;;;;;;;8.85;4.90;;;17.50;99.90;;;;;;5052536;28;20049;-66
2023/07/30 06:39:04;;;;;;;13.40;4.60;;;17.50;99.90;;;;;;5052197;28;20044;-66
2023/07/30 06:41:30;;;;;;;7.80;4.32;;;17.40;99.90;;;;;;5018019;28;20049;-66
2023/07/30 06:43:56;;;;;;;14.57;5.88;;;17.50;99.90;;;;;;5051804;28;20481;-65
2023/07/30 06:46:21;;;;;;;12.57;4.20;;;17.40;99.90;;;;;;5034434;28;20053;-67
2023/07/30 06:48:47;;;;;;;11.80;4.15;;;17.40;99.90;;;;;;5051814;28;20139;-66
2023/07/30 06:51:13;;;;;;;12.23;5.10;;;17.50;99.90;;;;;;5034250;28;20051;-67
2023/07/30 06:53:39;;;;;;;11.45;4.45;;;17.60;99.90;;;;;;5052597;28;20037;-66
2023/07/30 06:56:05;;;;;;;11.93;4.75;;;17.80;99.90;;;;;;5052455;28;20437;-66
2023/07/30 06:58:31;;;;;;;12.90;5.70;;;17.70;99.90;;;;;;5051890;28;20481;-68
2023/07/30 07:00:56;;;;;;;11.25;4.90;;;17.90;99.90;;;;;;5052292;28;20037;-66
2023/07/30 07:03:22;;;;;;;11.70;4.47;;;18.20;99.90;;;;;;5034192;28;20053;-68
2023/07/30 07:05:55;;;;;;;10.55;4.70;;;18.50;99.90;;;;;;5051979;28;20088;-66
2023/07/30 07:08:21;;;;;;;10.18;5.38;;;18.60;99.90;;;;;;5053066;28;20092;-66
2023/07/30 07:10:46;;;;;;;9.55;5.25;;;18.70;99.90;;;;;;5056212;28;20066;-65
2023/07/30 07:13:15;;;;;;;11.63;5.90;;;18.70;99.90;;;;;;5055682;28;20037;-66
2023/07/30 07:15:41;;;;;;;10.23;4.53;;;18.80;99.90;;;;;;5056023;28;20080;-65
2023/07/30 07:18:07;;;;;;;12.50;4.68;;;19.10;99.90;;;;;;5055708;28;20049;-67
2023/07/30 07:20:33;;;;;;;10.85;4.53;;;19.60;99.90;;;;;;5055424;28;20041;-68
2023/07/30 07:22:58;;;;;;;8.88;4.68;;;19.70;99.90;;;;;;5038039;28;20053;-67
2023/07/30 07:25:24;;;;;;;9.82;4.07;;;19.70;99.90;;;;;;5056331;28;20111;-66
2023/07/30 07:27:50;;;;;;;10.32;4.32;;;19.60;99.90;;;;;;5055953;28;20059;-66
2023/07/30 07:30:16;;;;;;;11.48;4.53;;;19.40;99.90;;;;;;5055670;28;20049;-68
2023/07/30 07:32:42;;;;;;;7.38;4.18;;;19.30;99.90;;;;;;5055512;28;20098;-66
2023/07/30 07:35:08;;;;;;;10.88;4.10;;;19.40;99.90;;;;;;5055519;28;20052;-65
2023/07/30 07:37:34;;;;;;;10.25;3.80;;;19.50;99.90;;;;;;5038449;28;20049;-67
2023/07/30 07:39:59;;;;;;;11.95;4.68;;;19.70;99.90;;;;;;5055937;28;20110;-65
2023/07/30 07:42:25;;;;;;;10.40;3.97;;;20.00;99.90;;;;;;5055395;28;20482;-66
2023/07/30 07:44:51;;;;;;;13.32;3.85;;;20.10;99.90;;;;;;5037956;28;20076;-65
2023/07/30 07:47:16;;;;;;;12.80;4.55;;;20.20;99.90;;;;;;5055437;28;20048;-67
2023/07/30 07:49:42;;;;;;;11.57;4.18;;;20.40;99.90;;;;;;5056029;28;20462;-67
2023/07/30 07:52:08;;;;;;;10.32;4.00;;;20.40;99.90;;;;;;5055274;28;20124;-65
2023/07/30 07:54:34;;;;;;;10.10;3.88;;;20.90;99.90;;;;;;5055313;28;20044;-67
2023/07/30 07:57:00;;;;;;;9.75;3.47;;;21.90;99.90;;;;;;5055155;28;20222;-65
2023/07/30 07:59:27;;;;;;;9.85;4.15;;;22.60;99.90;;;;;;5037803;28;20049;-66
2023/07/30 08:01:53;;;;;;;9.65;3.08;;;22.70;99.90;;;;;;5054688;28;20562;-65
2023/07/30 08:04:21;;;;;;;8.80;3.22;;;23.40;99.90;;;;;;5055129;28;20076;-66
2023/07/30 08:06:47;;;;;;;6.80;3.10;;;24.20;99.90;;;;;;5055145;28;20091;-65
2023/07/30 08:09:13;;;;;;;11.68;3.80;;;24.70;99.90;;;;;;5054965;28;20045;-67
2023/07/30 08:11:38;;;;;;;10.73;3.17;;;24.60;99.90;;;;;;5037406;28;20052;-66
2023/07/30 08:14:04;;;;;;;5.13;2.55;;;24.10;99.90;;;;;;5054827;28;20048;-66
2023/07/30 08:16:30;;;;;;;6.43;2.28;;;23.60;99.90;;;;;;5036806;28;20049;-66
2023/07/30 08:18:55;;;;;;;7.65;2.80;;;23.20;99.90;;;;;;5037336;28;20082;-66
2023/07/30 08:21:21;;;;;;;9.95;3.10;;;22.90;99.90;;;;;;5053221;28;20231;-66
2023/07/30 08:23:47;;;;;;;6.43;3.35;;;22.50;99.90;;;;;;5054657;28;20092;-67
2023/07/30 08:26:13;;;;;;;5.38;3.05;;;21.80;99.90;;;;;;5036638;28;20049;-67
2023/07/30 08:28:39;;;;;;;8.13;2.90;;;21.30;99.90;;;;;;5054346;28;20049;-67
2023/07/30 08:31:05;;;;;;;7.35;2.85;;;20.80;99.90;;;;;;5020493;28;20049;-64
2023/07/30 08:33:31;;;;;;;4.10;1.42;;;20.50;99.90;;;;;;5054756;28;20048;-64
2023/07/30 08:35:58;;;;;;;4.05;1.95;;;20.00;99.90;;;;;;5036622;28;20136;-65
2023/07/30 08:38:24;;;;;;;4.53;1.60;;;19.70;99.90;;;;;;5036518;28;20045;-67
2023/07/30 08:40:50;;;;;;;3.05;1.80;;;19.40;99.90;;;;;;5054097;28;20094;-65
2023/07/30 08:43:16;;;;;;;4.13;2.05;;;19.20;99.90;;;;;;5054154;28;20114;-66
2023/07/30 08:45:42;;;;;;;4.97;1.90;;;19.10;99.90;;;;;;5054632;28;20049;-65
2023/07/30 08:48:08;;;;;;;4.40;1.98;;;19.00;99.90;;;;;;5054219;28;20114;-65
2023/07/30 08:50:35;;;;;;;3.65;1.77;;;19.00;99.90;;;;;;5054254;28;20049;-65
2023/07/30 08:53:03;;;;;;;4.55;2.42;;;19.00;99.90;;;;;;5054127;28;20037;-66
2023/07/30 08:55:29;;;;;;;5.05;1.90;;;19.00;99.90;;;;;;5036673;28;20128;-65
2023/07/30 08:57:57;;;;;;;6.32;2.58;;;19.00;99.90;;;;;;5054256;28;20128;-67
2023/07/30 09:00:25;;;;;;;4.90;2.13;;;18.90;99.90;;;;;;5054309;28;20064;-66
2023/07/30 09:02:58;;;;;;;4.88;2.38;;;18.80;99.90;;;;;;5054155;28;20045;-66
2023/07/30 09:05:25;;;;;;;12.25;3.38;;;18.80;99.90;;;;;;5053864;28;20498;-67
2023/07/30 09:07:51;;;;;;;7.85;2.40;;;18.70;99.90;;;;;;5053793;28;20124;-66
2023/07/30 09:10:16;;;;;;;8.02;3.05;;;18.80;99.90;;;;;;5053665;28;20080;-66
2023/07/30 09:12:42;;;;;;;7.13;3.30;;;18.90;99.90;;;;;;5053867;28;20051;-67
2023/07/30 09:15:08;;;;;;;4.80;2.72;;;19.10;99.90;;;;;;5053768;28;20052;-66
2023/07/30 09:17:34;;;;;;;4.50;2.53;;;19.40;99.90;;;;;;5019561;28;20049;-67
2023/07/30 09:20:04;;;;;;;6.63;2.67;;;20.50;99.90;;;;;;5053943;28;20102;-66
2023/07/30 09:22:40;;;;;;;6.78;2.55;;;21.10;99.90;;;;;;5018770;28;20065;-66
2023/07/30 09:25:06;;;;;;;7.07;2.80;;;21.40;99.90;;;;;;5053564;28;20059;-67
2023/07/30 09:27:32;;;;;;;7.95;2.53;;;21.10;99.90;;;;;;5035685;28;20060;-67
2023/07/30 09:30:00;;;;;;;5.50;2.90;;;20.80;99.90;;;;;;5035503;28;20056;-67
2023/07/30 09:32:32;;;;;;;7.25;2.35;;;20.50;99.90;;;;;;5053466;28;20608;-67
2023/07/30 09:35:08;;;;;;;5.35;2.80;;;20.20;99.90;;;;;;5035438;28;20041;-67
2023/07/30 09:37:39;;;;;;;6.32;3.05;;;19.80;99.90;;;;;;5036229;28;20053;-67
2023/07/30 09:40:10;;;;;;;5.55;2.78;;;19.40;99.90;;;;;;5035185;28;20094;-65
2023/07/30 09:42:39;;;;;;;5.07;2.72;;;19.10;99.90;;;;;;5052985;28;20112;-67
2023/07/30 09:45:08;;;;;;;8.98;3.05;;;18.90;99.90;;;;;;5035152;28;20095;-66
2023/07/30 09:47:37;;;;;;;5.55;2.42;;;18.80;99.90;;;;;;5053034;28;20132;-67
2023/07/30 09:50:02;;;;;;;5.82;2.70;;;18.70;99.90;;;;;;5052986;28;20124;-67
2023/07/30 09:52:30;;;;;;;5.40;2.53;;;18.60;99.90;;;;;;5052678;28;20080;-67
2023/07/30 09:54:59;;;;;;;5.05;2.33;;;18.50;99.90;;;;;;5053303;28;20106;-67
2023/07/30 09:57:24;;;;;;;5.32;2.42;;;18.50;99.90;;;;;;5034852;28;20045;-68
2023/07/30 09:59:50;;;;;;;4.55;2.47;;;18.60;99.90;;;;;;5052737;28;20041;-67
2023/07/30 10:02:17;;;;;;;8.52;2.70;;;18.70;99.90;;;;;;5052747;28;20174;-67
2023/07/30 10:04:48;;;;;;;8.18;3.08;;;18.80;99.90;;;;;;5052684;28;20139;-67
2023/07/30 10:07:21;;;;;;;4.65;2.50;;;19.00;99.90;;;;;;5053232;28;20063;-67
2023/07/30 10:09:51;;;;;;;4.75;2.17;;;19.00;99.90;;;;;;5035606;28;20045;-67
2023/07/30 10:12:21;;;;;;;4.22;1.75;;;18.80;99.90;;;;;;5052460;28;20475;-69
2023/07/30 10:14:47;;;;;;;4.47;2.05;;;18.70;99.90;;;;;;5052566;28;20123;-67
2023/07/30 10:17:13;;;;;;;7.20;1.80;;;18.50;99.90;;;;;;5052431;28;20051;-68
2023/07/30 10:19:39;;;;;;;2.78;1.95;;;18.50;99.90;;;;;;5052195;28;20048;-68
2023/07/30 10:22:13;;;;;;;4.18;1.77;;;18.50;99.90;;;;;;5052328;28;20052;-67
2023/07/30 10:24:40;;;;;;;4.10;1.65;;;18.60;99.90;;;;;;5035148;28;20398;-67
2023/07/30 10:27:12;;;;;;;2.38;1.30;;;18.60;99.90;;;;;;5052806;28;20048;-67
2023/07/30 10:29:41;;;;;;;3.93;1.77;;;18.80;99.90;;;;;;5052342;28;20094;-68
2023/07/30 10:32:07;;;;;;;3.78;1.50;;;18.90;99.90;;;;;;5052291;28;20048;-68
2023/07/30 10:34:47;;;;;;;2.15;1.75;;;19.20;99.90;;;;;;5052344;28;20044;-67
2023/07/30 10:37:20;;;;;;;2.33;1.80;;;19.60;99.90;;;;;;5052342;28;20040;-68
2023/07/30 10:39:49;;;;;;;2.10;1.40;;;20.10;99.90;;;;;;5052562;28;20048;-67
2023/07/30 10:42:17;;;;;;;3.55;1.83;;;20.60;99.90;;;;;;5052057;28;20147;-67
2023/07/30 10:44:46;;;;;;;4.18;1.52;;;21.50;99.90;;;;;;5051739;28;20091;-68
2023/07/30 10:47:11;;;;;;;3.88;1.73;;;22.20;99.90;;;;;;5052154;28;20102;-68
2023/07/30 10:49:38;;;;;;;3.38;1.83;;;22.20;99.90;;;;;;5052439;28;20049;-69
2023/07/30 10:52:04;;;;;;;3.40;1.50;;;22.00;99.90;;;;;;5052156;28;20045;-67
2023/07/30 10:54:34;;;;;;;2.75;1.88;;;21.80;99.90;;;;;;5052671;28;20041;-66
2023/07/30 10:57:00;;;;;;;7.10;2.72;;;21.70;99.90;;;;;;5052152;28;20045;-66
2023/07/30 10:59:26;;;;;;;6.57;2.80;;;21.50;99.90;;;;;;5052050;28;20482;-67
2023/07/30 11:01:52;;;;;;;9.38;3.10;;;21.10;99.90;;;;;;5051890;28;20052;-68
2023/07/30 11:04:20;;;;;;;9.20;3.03;;;20.70;99.90;;;;;;5052448;28;20110;-67
2023/07/30 11:06:49;;;;;;;2.58;2.15;;;20.20;99.90;;;;;;5052084;28;20051;-67
2023/07/30 11:09:23;;;;;;;4.65;2.15;;;20.00;99.90;;;;;;5034696;28;20053;-67
2023/07/30 11:11:50;;;;;;;4.65;2.50;;;19.70;99.90;;;;;;5052271;28;20041;-67
2023/07/30 11:14:21;;;;;;;4.95;2.35;;;19.50;99.90;;;;;;5034451;28;20045;-68
2023/07/30 11:17:00;;;;;;;8.13;2.22;;;19.60;99.90;;;;;;5052364;28;20103;-68
2023/07/30 11:19:27;;;;;;;4.82;2.10;;;19.60;99.90;;;;;;5035756;28;20052;-68
2023/07/30 11:21:54;;;;;;;4.57;2.53;;;19.90;99.90;;;;;;5051825;28;20061;-68
2023/07/30 11:24:21;;;;;;;5.95;2.72;;;20.20;99.90;;;;;;5034155;28;20045;-67
2023/07/30 11:26:58;;;;;;;8.00;2.95;;;20.50;99.90;;;;;;5051691;28;20045;-67
2023/07/30 11:29:23;;;;;;;7.90;3.28;;;20.70;99.90;;;;;;5051727;28;20045;-65
2023/07/30 11:31:49;;;;;;;7.68;3.25;;;21.10;99.90;;;;;;5033954;28;20041;-65
2023/07/30 11:34:16;;;;;;;6.85;2.28;;;21.30;99.90;;;;;;5034526;28;20050;-65
2023/07/30 11:36:42;;;;;;;6.38;2.38;;;21.50;99.90;;;;;;5051629;28;20049;-65
2023/07/30 11:39:09;;;;;;;6.53;2.78;;;21.60;99.90;;;;;;5052064;28;20037;-65
2023/07/30 11:41:35;;;;;;;3.75;2.35;;;21.70;99.90;;;;;;5051728;28;20045;-67
2023/07/30 11:44:01;;;;;;;6.20;2.38;;;21.70;99.90;;;;;;5051384;28;20515;-67
2023/07/30 11:46:26;;;;;;;3.88;2.35;;;21.90;99.90;;;;;;5051658;28;20045;-68
2023/07/30 11:49:09;;;;;;;4.28;2.30;;;21.90;99.90;;;;;;5051257;28;20049;-67
2023/07/30 11:51:35;;;;;;;7.82;2.22;;;22.00;99.90;;;;;;5052062;28;20120;-68
2023/07/30 11:54:01;;;;;;;6.80;2.30;;;22.10;99.90;;;;;;5052141;28;20091;-68
2023/07/30 11:56:33;;;;;;;6.25;2.35;;;22.10;99.90;;;;;;5055235;28;20553;-67
2023/07/30 11:59:06;;;;;;;5.18;2.55;;;21.80;99.90;;;;;;5055218;28;20045;-66
2023/07/30 12:01:36;;;;;;;5.50;2.38;;;21.60;99.90;;;;;;5037577;28;20408;-67
2023/07/30 12:04:04;;;;;;;5.78;2.15;;;21.30;99.90;;;;;;5055509;28;20053;-68
2023/07/30 12:06:50;;;;;;;8.50;2.65;;;20.90;99.90;;;;;;5037525;28;20051;-67
2023/07/30 12:09:25;;;;;;;9.85;2.67;;;20.80;99.90;;;;;;5055041;28;20520;-64
2023/07/30 12:12:01;;;;;;;8.65;2.47;;;20.50;99.90;;;;;;5055305;28;20068;-64
2023/07/30 12:14:43;;;;;;;6.25;2.45;;;20.80;99.90;;;;;;5055242;28;20055;-63
2023/07/30 12:17:09;;;;;;;9.70;2.58;;;21.00;99.90;;;;;;5055160;28;20052;-63
2023/07/30 12:19:38;;;;;;;6.10;2.60;;;21.30;99.90;;;;;;5055138;28;20056;-63
2023/07/30 12:22:04;;;;;;;6.68;2.47;;;21.50;99.90;;;;;;5054601;28;20469;-64
2023/07/30 12:24:30;;;;;;;6.28;2.30;;;21.30;99.90;;;;;;5054724;28;20060;-64
2023/07/30 12:26:55;;;;;;;5.68;2.22;;;21.10;99.90;;;;;;5054666;28;20540;-64
2023/07/30 12:29:21;;;;;;;4.65;2.30;;;20.80;99.90;;;;;;5054339;28;20044;-64
2023/07/30 12:31:47;;;;;;;5.93;2.30;;;20.30;99.90;;;;;;5054956;28;20095;-63
2023/07/30 12:34:15;;;;;;;8.18;2.80;;;19.80;99.90;;;;;;5054595;28;20062;-64
2023/07/30 12:36:41;;;;;;;11.52;3.17;;;19.50;99.90;;;;;;5054515;28;20123;-64
2023/07/30 12:39:07;;;;;;;9.50;2.20;;;18.70;99.90;;;;;;5036568;28;20141;-63
2023/07/30 12:41:33;;;;;;;6.30;1.70;;;18.50;99.90;;;;;;5054752;28;20511;-63